BJE weather

La Cascajera Airport
Barranca Bermeja, Santander Department, Colombia

Public forecast

Using degrees Celsius for public forecast. Weather courtesy of forecast.io.

METAR (pilot weather report)

Closest report is YariguĂ­es Airport, 16.1 nm (29.9 km) WSW. Retrieved 2019/09/18 19:00 UTC (4 minutes ago):

SKEJ 181900Z 30003KT 9999 SCT012 BKN200 29/24 A2979

TAF (pilot weather forecast)

Closest forecast is Palonegro Airport, 23.7 nm (43.9 km) E. Retrieved 2019/09/18 18:30 UTC (34 minutes ago):

TAF SKBG 181630Z 1818/1918 33008KT 9999 SCT015 SCT080 TEMPO 1819/1823 5000 RA SCT012CB TEMPO 1900/1903 5000 BCFG DZ SCT010 BECMG 1903/1905 18004KT TEMPO 1909/1912 3000 BCFG DZ SCT007 TX28/1819Z TN18/1911Z